Time;durP1;ratioP1;P1;durP2;ratioP2;P2;SDS_P1;SDS_P2;PMS_P1;PMS_P2;Temp;Humidity;BMP_temperature;BMP_pressure;BME280_temperature;BME280_humidity;BME280_pressure;Samples;Min_cycle;Max_cycle;Signal;HPM_P1;HPM_P2
2024/04/04 00:01:17;;;;;;;35.80;18.00;;;7.00;99.90;;;5.70;100.00;100306.78;5005038;28;20033;-79
2024/04/04 00:03:48;;;;;;;35.05;16.95;;;7.10;99.90;;;5.73;100.00;100296.25;5019816;28;20090;-80
2024/04/04 00:06:14;;;;;;;38.95;18.58;;;7.00;99.90;;;5.75;100.00;100292.66;5002812;28;20495;-80
2024/04/04 00:08:40;;;;;;;30.50;17.25;;;7.10;99.90;;;5.71;100.00;100288.44;5006722;28;20030;-80
2024/04/04 00:11:13;;;;;;;29.17;16.45;;;7.00;99.90;;;5.71;100.00;100295.44;5017770;28;20035;-80
2024/04/04 00:13:39;;;;;;;38.97;19.80;;;7.10;99.90;;;5.73;100.00;100283.19;5004920;28;20060;-78
2024/04/04 00:16:05;;;;;;;41.80;19.80;;;7.10;99.90;;;5.77;100.00;100279.56;5021059;28;20021;-79
2024/04/04 00:18:31;;;;;;;36.75;19.13;;;7.10;99.90;;;5.79;100.00;100280.38;5003277;28;20121;-80
2024/04/04 00:20:58;;;;;;;36.47;19.13;;;7.10;99.90;;;5.79;100.00;100287.31;5002401;28;20133;-79
2024/04/04 00:23:24;;;;;;;37.15;19.38;;;7.10;99.90;;;5.80;100.00;100283.81;5019363;28;20113;-79
2024/04/04 00:25:50;;;;;;;38.70;18.83;;;7.10;99.90;;;5.76;100.00;100275.22;5018673;28;20386;-79
2024/04/04 00:28:25;;;;;;;31.42;18.77;;;7.10;99.90;;;5.77;100.00;100276.94;5018471;28;20095;-79
2024/04/04 00:30:50;;;;;;;28.90;16.13;;;7.10;99.90;;;5.71;100.00;100264.94;5017360;28;20439;-80
2024/04/04 00:33:16;;;;;;;32.67;18.80;;;7.10;99.90;;;5.75;100.00;100269.16;5018921;28;20029;-79
2024/04/04 00:35:42;;;;;;;39.50;19.75;;;7.10;99.90;;;5.78;100.00;100268.19;5017162;28;20104;-80
2024/04/04 00:38:13;;;;;;;33.53;17.20;;;7.10;99.90;;;5.80;100.00;100270.75;5018138;28;20407;-79
2024/04/04 00:40:38;;;;;;;36.35;18.98;;;7.20;99.90;;;5.80;100.00;100270.75;5001238;28;20033;-80
2024/04/04 00:43:04;;;;;;;30.45;15.23;;;7.20;99.90;;;5.81;100.00;100270.72;5008942;28;20050;-79
2024/04/04 00:45:31;;;;;;;37.33;18.02;;;7.20;99.90;;;5.85;100.00;100269.72;5017914;28;20033;-80
2024/04/04 00:48:03;;;;;;;40.85;19.88;;;7.20;99.90;;;5.88;100.00;100260.91;5002576;28;20037;-79
2024/04/04 00:50:29;;;;;;;43.83;19.83;;;7.20;99.90;;;5.91;100.00;100263.41;5027921;28;20041;-79
2024/04/04 00:52:56;;;;;;;44.85;19.52;;;7.20;99.90;;;5.92;100.00;100265.13;5021403;28;20044;-79
2024/04/04 00:55:22;;;;;;;36.35;16.67;;;7.20;99.90;;;5.94;100.00;100266.81;5021335;28;20029;-80
2024/04/04 00:57:56;;;;;;;46.85;20.85;;;7.30;99.90;;;5.99;100.00;100258.81;5028941;28;20030;-78
2024/04/04 01:00:25;;;;;;;39.97;16.52;;;7.30;99.90;;;5.98;100.00;100259.69;5023304;28;20026;-79
2024/04/04 01:02:54;;;;;;;34.45;13.13;;;7.30;99.90;;;5.94;100.00;100252.88;5024520;28;20037;-79
2024/04/04 01:05:22;;;;;;;39.88;16.13;;;7.30;99.90;;;5.95;100.00;100249.34;5007174;28;20113;-79
2024/04/04 01:07:50;;;;;;;40.47;17.92;;;7.30;99.90;;;5.97;100.00;100241.47;5021720;28;20045;-79
2024/04/04 01:10:19;;;;;;;49.75;18.83;;;7.30;99.90;;;5.99;100.00;100250.13;5004771;28;20116;-79
2024/04/04 01:12:44;;;;;;;48.60;16.45;;;7.40;99.90;;;6.02;100.00;100248.22;5001566;28;20033;-78
2024/04/04 01:15:18;;;;;;;52.95;19.45;;;7.30;99.90;;;6.01;100.00;100250.91;5023417;28;20025;-78
2024/04/04 01:17:43;;;;;;;43.35;16.52;;;7.30;99.90;;;6.01;100.00;100243.91;5022959;28;20022;-79
2024/04/04 01:20:09;;;;;;;46.88;20.10;;;7.30;99.90;;;6.03;100.00;100246.50;5021106;28;20088;-79
2024/04/04 01:22:35;;;;;;;51.40;19.55;;;7.40;99.90;;;6.07;100.00;100240.22;5021867;28;20022;-79
2024/04/04 01:25:01;;;;;;;41.72;17.15;;;7.40;99.90;;;6.07;100.00;100246.31;5005947;28;20031;-79
2024/04/04 01:27:27;;;;;;;43.17;18.30;;;7.40;99.90;;;6.09;100.00;100241.88;5003368;28;20057;-79
2024/04/04 01:29:57;;;;;;;54.75;19.90;;;7.40;99.90;;;6.12;100.00;100241.78;5030354;28;20036;-79
2024/04/04 01:32:23;;;;;;;56.15;18.83;;;7.50;99.90;;;6.15;100.00;100246.91;5020335;28;20037;-78
2024/04/04 01:34:49;;;;;;;63.97;21.65;;;7.50;99.90;;;6.19;100.00;100238.94;5005115;28;20029;-78
2024/04/04 01:37:14;;;;;;;61.70;21.27;;;7.50;99.90;;;6.20;100.00;100238.91;5023650;28;20029;-79
2024/04/04 01:39:40;;;;;;;64.53;21.35;;;7.50;99.90;;;6.23;100.00;100232.69;5021751;28;20033;-79
2024/04/04 01:42:06;;;;;;;55.05;19.98;;;7.50;99.90;;;6.25;100.00;100238.72;5022280;28;20030;-79
2024/04/04 01:44:37;;;;;;;74.85;23.55;;;7.60;99.90;;;6.30;100.00;100231.56;5004438;28;20964;-80
2024/04/04 01:47:03;;;;;;;60.17;20.70;;;7.60;99.90;;;6.29;100.00;100233.31;5021510;28;20049;-78
2024/04/04 01:49:29;;;;;;;64.85;21.02;;;7.60;99.90;;;6.34;100.00;100231.38;5021673;28;20036;-80
2024/04/04 01:51:54;;;;;;;62.03;21.80;;;7.70;99.90;;;6.35;100.00;100217.41;5021368;28;20026;-79
2024/04/04 01:54:20;;;;;;;63.58;23.45;;;7.70;99.90;;;6.39;100.00;100217.28;5005157;28;20408;-79
2024/04/04 01:56:46;;;;;;;73.03;24.10;;;7.70;99.90;;;6.42;100.00;100223.25;5021676;28;20030;-79
2024/04/04 01:59:14;;;;;;;67.25;24.67;;;7.70;99.90;;;6.44;100.00;100225.81;5004733;28;20047;-79
2024/04/04 02:01:40;;;;;;;81.28;25.25;;;7.80;99.90;;;6.47;100.00;100223.09;5006509;28;20034;-79
2024/04/04 02:04:06;;;;;;;68.57;23.55;;;7.80;99.90;;;6.49;100.00;100218.66;5003093;28;20049;-79
2024/04/04 02:06:31;;;;;;;72.47;24.35;;;7.80;99.90;;;6.54;100.00;100219.31;5020013;28;20433;-79
2024/04/04 02:08:57;;;;;;;72.32;26.20;;;7.80;99.90;;;6.56;100.00;100220.97;5020138;28;20030;-79
2024/04/04 02:11:23;;;;;;;68.70;22.92;;;7.90;99.90;;;6.57;100.00;100216.59;5018487;28;20071;-79
2024/04/04 02:13:49;;;;;;;75.05;25.75;;;7.90;99.90;;;6.60;100.00;100218.25;5006438;28;20036;-79
2024/04/04 02:16:22;;;;;;;69.75;22.48;;;7.90;99.90;;;6.61;100.00;100201.63;5022697;28;20026;-79
2024/04/04 02:18:51;;;;;;;73.32;25.27;;;7.90;99.90;;;6.63;100.00;100205.91;5037103;28;20073;-79
2024/04/04 02:21:17;;;;;;;80.80;25.42;;;7.90;99.90;;;6.66;100.00;100195.31;5021140;28;20045;-79
2024/04/04 02:23:50;;;;;;;89.43;25.25;;;8.00;99.90;;;6.70;100.00;100190.81;5004188;28;20099;-79
2024/04/04 02:26:16;;;;;;;72.88;24.40;;;8.00;99.90;;;6.73;100.00;100194.16;5009501;28;20056;-79
2024/04/04 02:28:42;;;;;;;85.07;24.77;;;8.00;99.90;;;6.73;100.00;100191.53;5021394;28;20399;-80
2024/04/04 02:31:08;;;;;;;86.07;26.35;;;8.10;99.90;;;6.76;100.00;100187.97;5023430;28;20116;-79
2024/04/04 02:33:41;;;;;;;92.30;25.73;;;8.00;99.90;;;6.78;100.00;100188.72;5019273;28;20037;-80
2024/04/04 02:36:07;;;;;;;82.30;24.77;;;8.10;99.90;;;6.78;100.00;100184.38;5019147;28;20501;-79
2024/04/04 02:38:33;;;;;;;75.43;24.08;;;8.10;99.90;;;6.78;100.00;100187.00;5004553;28;20062;-80
2024/04/04 02:40:59;;;;;;;81.30;25.25;;;8.10;99.90;;;6.81;100.00;100177.31;5018722;28;20148;-79
2024/04/04 02:43:25;;;;;;;85.10;24.20;;;8.10;99.90;;;6.84;100.00;100172.78;5020387;28;20041;-79
2024/04/04 02:46:02;;;;;;;92.68;26.98;;;8.10;99.90;;;6.86;100.00;100164.88;5019764;28;20644;-80
2024/04/04 02:48:28;;;;;;;94.75;27.30;;;8.10;99.90;;;6.87;100.00;100166.56;5018977;28;20510;-80
2024/04/04 02:51:03;;;;;;;100.80;27.77;;;8.20;99.90;;;6.90;100.00;100169.94;5004593;28;20022;-78
2024/04/04 02:53:29;;;;;;;83.78;25.77;;;8.20;99.90;;;6.90;100.00;100156.84;5020667;28;20053;-77
2024/04/04 02:55:56;;;;;;;94.32;27.58;;;8.20;99.90;;;6.94;100.00;100157.59;5018618;28;20087;-80
2024/04/04 02:58:23;;;;;;;99.00;28.83;;;8.20;99.90;;;6.98;100.00;100164.41;5034453;28;20124;-81
2024/04/04 03:00:53;;;;;;;92.00;28.33;;;8.30;99.90;;;7.02;100.00;100162.50;5021654;28;20400;-77
2024/04/04 03:03:19;;;;;;;83.75;27.02;;;8.30;99.90;;;7.05;100.00;100162.38;5021619;28;20058;-78
2024/04/04 03:05:46;;;;;;;73.05;24.92;;;8.30;99.90;;;7.08;100.00;100173.56;5019169;28;20034;-78
2024/04/04 03:08:23;;;;;;;93.55;27.83;;;8.30;99.90;;;7.09;100.00;100175.28;5019871;28;20045;-79
2024/04/04 03:10:49;;;;;;;80.07;23.92;;;8.40;99.90;;;7.11;100.00;100170.84;5021979;28;20056;-79
2024/04/04 03:13:14;;;;;;;89.32;27.40;;;8.40;99.90;;;7.12;100.00;100172.53;5003526;28;20532;-80
2024/04/04 03:15:40;;;;;;;94.28;28.10;;;8.40;99.90;;;7.14;100.00;100165.47;5004465;28;20028;-78
2024/04/04 03:18:09;;;;;;;109.10;30.55;;;8.40;99.90;;;7.20;100.00;100161.75;5027652;28;20036;-80
2024/04/04 03:20:34;;;;;;;97.97;29.45;;;8.50;99.90;;;7.23;100.00;100169.47;5011335;28;20030;-78
2024/04/04 03:23:00;;;;;;;103.85;30.52;;;8.50;99.90;;;7.25;100.00;100169.41;5021494;28;20040;-80
2024/04/04 03:25:26;;;;;;;97.70;29.17;;;8.50;99.90;;;7.25;100.00;100156.31;5005313;28;20030;-81
2024/04/04 03:27:52;;;;;;;89.05;28.90;;;8.50;99.90;;;7.30;100.00;100154.34;5019219;28;20496;-80
2024/04/04 03:30:18;;;;;;;79.32;28.35;;;8.60;99.90;;;7.31;100.00;100150.81;4998747;28;20412;-80
2024/04/04 03:32:44;;;;;;;70.00;25.80;;;8.60;99.90;;;7.32;100.00;100155.13;5010362;28;20408;-80
2024/04/04 03:35:10;;;;;;;73.63;27.05;;;8.60;99.90;;;7.32;100.00;100156.00;5004458;28;20059;-77
2024/04/04 03:37:41;;;;;;;68.57;26.83;;;8.60;99.90;;;7.35;100.00;100152.41;5004453;28;20083;-80
2024/04/04 03:40:07;;;;;;;65.18;25.60;;;8.60;99.90;;;7.36;100.00;100159.31;5017466;28;20025;-77
2024/04/04 03:42:33;;;;;;;57.03;24.50;;;8.70;99.90;;;7.39;100.00;100161.81;5018473;28;20037;-78
2024/04/04 03:44:59;;;;;;;69.90;25.55;;;8.70;99.90;;;7.42;100.00;100161.69;5001550;28;20563;-80
2024/04/04 03:47:25;;;;;;;62.47;26.63;;;8.70;99.90;;;7.47;100.00;100162.31;5021307;28;20033;-80
2024/04/04 03:49:56;;;;;;;70.03;28.17;;;8.70;99.90;;;7.52;100.00;100157.75;5020681;28;20036;-77
2024/04/04 03:52:21;;;;;;;76.90;27.23;;;8.80;99.90;;;7.54;100.00;100155.94;5010472;28;20029;-77
2024/04/04 03:54:47;;;;;;;64.55;24.23;;;8.80;99.90;;;7.56;100.00;100146.25;5002539;28;20087;-78
2024/04/04 03:57:13;;;;;;;67.25;27.73;;;8.80;99.90;;;7.59;100.00;100146.09;5027522;28;20087;-77
2024/04/04 03:59:39;;;;;;;61.85;27.35;;;8.90;99.90;;;7.63;100.00;100145.97;5021209;28;20037;-78
2024/04/04 04:02:05;;;;;;;62.88;27.15;;;8.90;99.90;;;7.65;100.00;100142.38;5036362;28;20249;-78
2024/04/04 04:04:38;;;;;;;75.63;27.80;;;8.90;99.90;;;7.68;100.00;100150.06;5017002;28;20030;-77
2024/04/04 04:07:04;;;;;;;69.97;27.77;;;9.00;99.90;;;7.71;100.00;100143.84;5019917;28;20026;-80
2024/04/04 04:09:30;;;;;;;74.85;28.27;;;9.00;99.90;;;7.75;100.00;100148.91;5019807;28;20091;-77
2024/04/04 04:11:56;;;;;;;63.55;27.45;;;9.00;99.90;;;7.79;100.00;100152.22;5018426;28;20396;-77
2024/04/04 04:14:22;;;;;;;65.70;27.55;;;9.10;99.90;;;7.84;100.00;100149.41;5003121;28;20124;-77
2024/04/04 04:16:53;;;;;;;74.20;28.77;;;9.10;99.90;;;7.88;100.00;100154.44;5003651;28;20095;-80
2024/04/04 04:19:19;;;;;;;83.32;31.08;;;9.20;99.90;;;7.93;100.00;100160.34;5018423;28;20026;-80
2024/04/04 04:21:45;;;;;;;76.22;30.63;;;9.20;99.90;;;7.98;100.00;100158.34;5019731;28;20036;-78
2024/04/04 04:24:11;;;;;;;80.28;30.60;;;9.30;99.90;;;8.02;100.00;100159.06;5019964;28;20030;-80
2024/04/04 04:26:37;;;;;;;80.32;30.90;;;9.30;99.90;;;8.08;100.00;100161.44;5001202;28;20488;-77
2024/04/04 04:29:07;;;;;;;77.57;31.63;;;9.30;99.90;;;8.13;100.00;100164.69;5002042;28;20048;-77
2024/04/04 04:31:35;;;;;;;91.75;35.47;;;9.40;99.90;;;8.18;100.00;100165.31;5016876;28;20029;-78
2024/04/04 04:34:03;;;;;;;91.03;33.22;;;9.40;99.90;;;8.25;100.00;100173.78;5019153;28;20029;-78
2024/04/04 04:36:37;;;;;;;96.53;33.38;;;9.50;99.90;;;8.28;100.00;100163.13;5019155;28;20531;-80
2024/04/04 04:39:04;;;;;;;93.28;32.22;;;9.50;99.90;;;8.31;100.00;100168.22;5019401;28;20034;-77
2024/04/04 04:41:32;;;;;;;86.88;32.67;;;9.50;99.90;;;8.35;100.00;100163.69;5001126;28;20589;-79
2024/04/04 04:43:57;;;;;;;78.97;30.15;;;9.60;99.90;;;8.35;100.00;100175.03;5016334;28;20088;-78
2024/04/04 04:46:28;;;;;;;73.82;28.48;;;9.60;99.90;;;8.38;100.00;100171.41;5008554;28;20503;-77
2024/04/04 04:48:54;;;;;;;65.25;27.17;;;9.60;99.90;;;8.39;100.00;100168.72;5037594;28;20033;-79
2024/04/04 04:51:19;;;;;;;72.25;30.58;;;9.60;99.90;;;8.45;100.00;100169.41;5020010;28;20112;-81
2024/04/04 04:53:45;;;;;;;72.45;29.70;;;9.70;99.90;;;8.49;100.00;100179.69;5018093;28;20033;-79
2024/04/04 04:56:11;;;;;;;70.82;28.77;;;9.70;99.90;;;8.55;100.00;100176.78;4995024;28;20032;-78
2024/04/04 04:58:37;;;;;;;66.53;29.10;;;9.80;99.90;;;8.61;100.00;100184.34;5032563;28;20037;-78
2024/04/04 05:01:05;;;;;;;65.18;28.52;;;9.80;99.90;;;8.67;100.00;100179.75;5001537;28;20065;-78
2024/04/04 05:03:33;;;;;;;57.80;26.63;;;9.90;99.90;;;8.70;100.00;100183.06;5017838;28;20042;-80
2024/04/04 05:05:59;;;;;;;50.75;23.65;;;9.90;99.90;;;8.75;100.00;100181.09;5018118;28;20030;-80
2024/04/04 05:08:25;;;;;;;50.80;22.92;;;9.90;99.90;;;8.80;100.00;100183.47;5001413;28;20087;-80
2024/04/04 05:10:51;;;;;;;44.03;21.85;;;10.00;99.90;;;8.83;100.00;100181.56;5017938;28;20029;-80
2024/04/04 05:13:17;;;;;;;40.60;20.67;;;10.00;99.90;;;8.87;100.00;100184.88;5017962;28;20458;-80
2024/04/04 05:15:53;;;;;;;48.67;20.98;;;10.10;99.90;;;8.93;100.00;100189.00;5002237;28;20037;-79
2024/04/04 05:18:19;;;;;;;;;;;10.10;99.90;;;8.94;100.00;100185.44;5003869;28;20034;-79
2024/04/04 05:20:45;;;;;;;29.38;16.77;;;10.20;99.90;;;8.96;100.00;100180.97;5026261;28;19959;-80
2024/04/04 05:23:17;;;;;;;37.90;18.58;;;10.20;99.90;;;9.00;100.00;100185.97;5006914;28;20454;-80
2024/04/04 05:25:43;;;;;;;28.67;16.05;;;10.20;99.90;;;9.04;100.00;100187.53;5019679;28;20047;-80
2024/04/04 05:28:08;;;;;;;33.85;17.88;;;10.30;99.90;;;9.07;100.00;100191.81;5019746;28;20026;-80
2024/04/04 05:30:34;;;;;;;28.77;16.95;;;10.30;99.90;;;9.11;100.00;100197.75;5017137;28;20038;-80
2024/04/04 05:33:01;;;;;;;33.45;17.20;;;10.30;99.90;;;9.12;100.00;100189.81;5016549;28;20025;-80
2024/04/04 05:35:35;;;;;;;33.72;17.58;;;10.30;99.90;;;9.15;100.00;100194.91;5018310;28;20036;-80
2024/04/04 05:38:01;;;;;;;28.40;16.90;;;10.40;99.90;;;9.18;100.00;100193.91;5020784;28;20033;-80
2024/04/04 05:40:26;;;;;;;33.17;17.38;;;10.40;99.90;;;9.20;100.00;100195.53;5024212;28;20117;-79
2024/04/04 05:42:53;;;;;;;25.55;16.15;;;10.40;99.90;;;9.21;100.00;100196.38;5019563;28;20040;-80
2024/04/04 05:45:26;;;;;;;26.05;16.10;;;10.40;99.90;;;9.23;100.00;100190.13;5021022;28;20045;-79
2024/04/04 05:47:52;;;;;;;26.25;15.48;;;10.40;99.90;;;9.24;100.00;100194.47;5003976;28;20037;-80
2024/04/04 05:50:17;;;;;;;29.80;16.40;;;10.50;99.90;;;9.27;100.00;100193.44;5021652;28;20423;-80
2024/04/04 05:52:43;;;;;;;25.50;16.35;;;10.50;99.90;;;9.30;100.00;100200.31;5005844;28;20109;-80
2024/04/04 05:55:15;;;;;;;27.77;16.15;;;10.50;99.90;;;9.31;100.00;100200.25;5001888;28;20034;-80
2024/04/04 05:57:44;;;;;;;30.48;16.20;;;10.50;99.90;;;9.33;100.00;100203.66;5023266;28;20029;-81
2024/04/04 06:00:10;;;;;;;30.33;16.75;;;10.60;99.90;;;9.39;100.00;100207.75;5006596;28;20034;-80
2024/04/04 06:02:36;;;;;;;25.17;16.85;;;10.60;99.90;;;9.43;100.00;100204.03;5020521;28;20088;-80
2024/04/04 06:05:07;;;;;;;27.33;15.73;;;10.60;99.90;;;9.48;100.00;100212.56;5003506;28;20064;-80
2024/04/04 06:07:34;;;;;;;25.63;17.15;;;10.70;99.90;;;9.52;100.00;100207.97;5012365;28;20043;-80
2024/04/04 06:10:00;;;;;;;24.17;15.85;;;10.70;99.90;;;9.57;100.00;100214.72;5005914;28;20033;-80
2024/04/04 06:12:26;;;;;;;26.08;16.75;;;10.80;99.90;;;9.62;100.00;100210.06;5019616;28;20388;-80
2024/04/04 06:14:52;;;;;;;30.95;16.80;;;10.80;99.90;;;9.65;100.00;100204.66;5013353;28;20029;-80
2024/04/04 06:17:18;;;;;;;25.48;16.05;;;10.80;99.90;;;9.66;100.00;100205.50;5003000;28;20112;-80
2024/04/04 06:19:49;;;;;;;32.22;17.02;;;10.80;99.90;;;9.71;100.00;100210.53;5020628;28;20443;-81
2024/04/04 06:22:15;;;;;;;27.00;16.30;;;10.90;99.90;;;9.76;100.00;100212.00;5006801;28;20061;-80
2024/04/04 06:24:41;;;;;;;25.63;15.38;;;11.00;99.90;;;9.80;100.00;100212.69;5022988;28;20040;-81
2024/04/04 06:27:07;;;;;;;28.30;16.48;;;11.00;99.90;;;9.87;100.00;100206.19;5017536;28;20026;-80
2024/04/04 06:29:34;;;;;;;24.58;16.13;;;11.10;99.90;;;9.98;100.00;100206.47;5013401;28;20480;-80
2024/04/04 06:32:06;;;;;;;22.58;15.00;;;11.10;99.90;;;10.12;100.00;100210.16;5003709;28;20037;-80
2024/04/04 06:34:33;;;;;;;24.35;14.88;;;11.20;99.90;;;10.18;100.00;100212.47;5019708;28;20139;-81
2024/04/04 06:37:00;;;;;;;26.23;14.38;;;11.30;99.90;;;10.20;100.00;100210.59;5024436;28;20042;-81
2024/04/04 06:39:25;;;;;;;22.48;14.63;;;11.30;99.90;;;10.23;100.00;100216.53;5013490;28;20053;-81
2024/04/04 06:41:56;;;;;;;22.35;13.30;;;11.40;99.90;;;10.25;100.00;100216.47;5023020;28;20492;-81
2024/04/04 06:44:22;;;;;;;21.73;13.50;;;11.40;99.90;;;10.28;100.00;100218.94;5023086;28;20121;-81
2024/04/04 06:46:48;;;;;;;22.33;12.80;;;11.50;99.90;;;10.39;100.00;100221.03;5005469;28;20132;-80
2024/04/04 06:49:15;;;;;;;20.20;13.05;;;11.50;99.90;;;10.50;100.00;100223.94;5022022;28;20029;-80
2024/04/04 06:51:41;;;;;;;17.60;11.85;;;11.60;99.90;;;10.61;100.00;100218.09;5006220;28;20022;-80
2024/04/04 06:54:07;;;;;;;17.55;10.70;;;11.70;99.90;;;10.65;100.00;100223.09;5022835;28;20105;-81
2024/04/04 06:56:36;;;;;;;14.55;10.38;;;11.80;99.90;;;10.72;100.00;100220.97;5023594;28;20030;-81
2024/04/04 06:59:02;;;;;;;22.13;11.57;;;11.90;99.90;;;10.86;100.00;100212.28;5007904;28;20038;-81
2024/04/04 07:01:29;;;;;;;24.42;12.02;;;11.90;99.90;;;10.87;100.00;100211.38;5004385;28;20036;-83
2024/04/04 07:03:59;;;;;;;20.88;11.27;;;12.00;99.90;;;10.95;100.00;100218.81;5005667;28;20057;-83
2024/04/04 07:06:33;;;;;;;22.17;11.65;;;12.10;99.90;;;11.10;100.00;100217.97;5007857;28;20503;-84
2024/04/04 07:08:59;;;;;;;23.60;11.70;;;12.20;99.90;;;11.24;100.00;100218.03;5029275;28;20038;-82
2024/04/04 07:11:39;;;;;;;19.65;10.48;;;;;;;11.33;100.00;100214.00;5006109;28;20421;-83
2024/04/04 07:14:17;;;;;;;19.40;9.93;;;12.40;99.90;;;11.42;100.00;100216.09;5020131;28;20041;-83
2024/04/04 07:16:46;;;;;;;18.17;9.00;;;12.50;99.90;;;11.53;100.00;100217.28;5024655;28;20037;-84
2024/04/04 07:19:18;;;;;;;17.00;8.65;;;12.70;99.90;;;11.68;100.00;100216.38;5009856;28;20040;-84
2024/04/04 07:21:46;;;;;;;14.82;9.63;;;12.70;99.90;;;11.75;100.00;100216.84;5005070;28;20021;-84
2024/04/04 07:24:25;;;;;;;14.60;8.43;;;12.80;99.90;;;11.73;100.00;100211.69;5015776;28;20033;-83
2024/04/04 07:26:51;;;;;;;22.17;9.20;;;12.80;99.90;;;11.69;100.00;100221.56;5005013;28;20041;-84
2024/04/04 07:29:26;;;;;;;17.63;9.55;;;;;;;11.88;100.00;100225.78;5022719;28;20029;-83
2024/04/04 07:31:57;;;;;;;16.65;8.73;;;;;;;11.90;100.00;100223.91;5019197;28;20029;-84
2024/04/04 07:34:34;;;;;;;20.17;9.82;;;13.10;99.90;;;11.97;100.00;100221.75;5016041;28;20033;-84
2024/04/04 07:37:00;;;;;;;16.08;9.00;;;13.10;99.90;;;12.00;100.00;100229.47;5020483;28;20038;-84
2024/04/04 07:39:26;;;;;;;14.02;8.80;;;13.10;99.90;;;11.92;100.00;100222.00;5020292;28;20029;-84
2024/04/04 07:42:17;;;;;;;19.00;8.82;;;13.10;99.90;;;12.00;100.00;100238.22;5009027;28;20073;-84
2024/04/04 07:44:52;;;;;;;21.25;8.32;;;13.20;99.90;;;12.14;100.00;100236.53;5008587;28;20538;-84
2024/04/04 07:47:18;;;;;;;15.88;8.23;;;13.20;99.90;;;12.02;100.00;100233.69;5016786;23;20466;-82
2024/04/04 07:49:44;;;;;;;16.98;8.15;;;13.20;99.90;;;11.97;100.00;100232.28;5012505;28;20083;-84
2024/04/04 07:52:10;;;;;;;17.98;7.97;;;13.10;99.90;;;11.90;100.00;100231.81;5028268;28;20022;-85
2024/04/04 07:54:36;;;;;;;21.48;8.52;;;13.10;99.90;;;11.82;100.00;100237.50;5005408;28;20026;-82
2024/04/04 07:57:11;;;;;;;17.63;8.32;;;13.10;99.90;;;11.89;100.00;100243.28;5002251;28;20030;-84
2024/04/04 07:59:38;;;;;;;15.15;7.50;;;13.00;99.90;;;11.87;100.00;100245.13;5002611;28;20030;-83
2024/04/04 08:02:16;;;;;;;19.70;8.43;;;13.20;99.90;;;12.08;100.00;100243.88;5003731;28;20064;-84
2024/04/04 08:04:42;;;;;;;20.85;8.68;;;13.30;99.90;;;12.26;100.00;100252.47;5003646;28;20125;-84
2024/04/04 08:07:07;;;;;;;20.15;7.22;;;13.40;99.90;;;12.36;99.58;100281.81;4993027;28;20683;-83
2024/04/04 08:09:33;;;;;;;15.70;7.20;;;13.40;99.90;;;12.36;96.71;100262.47;5001090;28;20548;-82
2024/04/04 08:12:06;;;;;;;19.27;7.70;;;13.50;99.90;;;12.40;94.48;100266.63;5006347;28;20057;-82
2024/04/04 08:14:33;;;;;;;17.00;7.65;;;13.50;99.90;;;12.29;93.73;100262.84;4995897;28;20540;-82
2024/04/04 08:16:59;;;;;;;16.35;6.90;;;13.50;99.90;;;12.27;94.01;100269.19;5011341;28;20044;-82
2024/04/04 08:19:25;;;;;;;18.30;7.35;;;13.40;99.90;;;12.21;93.49;100275.66;4995666;28;20023;-82
2024/04/04 08:21:59;;;;;;;14.45;7.18;;;13.40;99.90;;;12.20;94.25;100273.97;5005895;28;20044;-82
2024/04/04 08:24:25;;;;;;;17.02;6.53;;;13.30;99.90;;;12.09;93.70;100269.34;4998495;28;20034;-84
2024/04/04 08:26:51;;;;;;;18.67;7.25;;;13.30;99.90;;;12.10;94.48;100273.66;4995588;28;20121;-83
2024/04/04 08:29:17;;;;;;;16.02;8.10;;;13.30;99.90;;;12.08;94.15;100280.00;5011474;28;20037;-83
2024/04/04 08:31:47;;;;;;;16.77;6.50;;;13.30;99.90;;;12.22;95.96;100281.78;5008469;28;20106;-84
2024/04/04 08:34:13;;;;;;;14.32;6.70;;;13.30;99.90;;;12.21;95.38;100266.91;5005966;28;20026;-83
2024/04/04 08:36:39;;;;;;;13.75;6.40;;;13.40;99.90;;;12.27;94.80;100275.28;5004122;28;20129;-82
2024/04/04 08:39:06;;;;;;;20.15;7.60;;;13.40;99.90;;;12.24;94.51;100264.06;5014404;28;20072;-83
2024/04/04 08:41:32;;;;;;;15.40;6.40;;;13.40;99.90;;;12.22;95.17;100256.22;5025233;28;20025;-83
2024/04/04 08:44:03;;;;;;;20.83;7.03;;;13.30;99.90;;;12.15;94.20;100254.06;5013704;28;20030;-83
2024/04/04 08:46:34;;;;;;;15.43;6.43;;;13.30;99.90;;;12.13;94.26;100255.94;5023965;28;20034;-83
2024/04/04 08:49:01;;;;;;;14.82;7.22;;;13.30;99.90;;;12.15;95.11;100243.50;5014263;28;20034;-83
2024/04/04 08:51:27;;;;;;;13.93;6.60;;;13.30;99.90;;;12.21;95.78;100251.06;4998175;28;20506;-82
2024/04/04 08:53:56;;;;;;;12.02;5.90;;;13.40;99.90;;;12.35;95.96;100252.84;4998230;28;20080;-83
2024/04/04 08:56:22;;;;;;;19.25;6.20;;;13.50;99.90;;;12.47;95.99;100263.50;5016284;28;20120;-83
2024/04/04 08:58:48;;;;;;;10.43;4.82;;;13.60;99.90;;;12.54;95.67;100261.31;5020562;28;20034;-83
2024/04/04 09:01:14;;;;;;;17.17;4.85;;;13.70;99.90;;;12.63;95.04;100265.19;5002947;28;20121;-83
2024/04/04 09:03:43;;;;;;;14.20;5.05;;;13.70;99.90;;;12.59;91.69;100266.31;4998443;28;20899;-83
2024/04/04 09:06:14;;;;;;;12.48;4.28;;;13.70;99.90;;;12.58;90.62;100270.75;4996047;28;20042;-84
2024/04/04 09:08:40;;;;;;;16.58;4.68;;;13.70;99.90;;;12.51;89.05;100265.00;5016794;28;21168;-83
2024/04/04 09:11:06;;;;;;;18.52;4.38;;;13.70;99.90;;;12.55;89.37;100264.81;5015574;28;20033;-83
2024/04/04 09:13:36;;;;;;;13.82;4.63;;;13.70;99.90;;;12.64;90.09;100270.38;5011341;28;20026;-83
2024/04/04 09:16:07;;;;;;;10.07;3.70;;;13.80;99.90;;;12.70;89.68;100272.66;5000267;28;20038;-84
2024/04/04 09:18:33;;;;;;;13.10;4.28;;;;;;;12.75;88.62;100272.34;4998559;28;20042;-83
2024/04/04 09:21:05;;;;;;;21.98;4.68;;;13.90;99.90;;;12.87;87.66;100279.50;5018309;28;20037;-83
2024/04/04 09:23:34;;;;;;;16.40;4.65;;;14.00;99.90;;;13.02;87.85;100276.81;5000176;28;20488;-83
2024/04/04 09:26:00;;;;;;;8.95;3.70;;;14.20;99.90;;;13.17;87.62;100270.53;4999801;28;20061;-84
2024/04/04 09:28:28;;;;;;;20.48;4.13;;;14.30;99.90;;;13.25;87.06;100278.00;5017599;28;20400;-83
2024/04/04 09:31:03;;;;;;;13.32;3.80;;;14.30;99.90;;;13.28;86.04;100275.13;4999895;28;20026;-83
2024/04/04 09:33:29;;;;;;;9.52;3.20;;;14.40;99.90;;;13.27;83.79;100269.00;5013490;28;20030;-82
2024/04/04 09:36:09;;;;;;;9.70;3.35;;;14.40;99.90;;;13.36;84.52;100269.41;5007246;28;20508;-83
2024/04/04 09:38:35;;;;;;;16.75;4.03;;;14.40;99.90;;;13.30;82.95;100270.63;5009651;28;20026;-82
2024/04/04 09:41:10;;;;;;;16.02;4.35;;;14.40;99.90;;;13.29;83.33;100280.38;4996681;28;20045;-83
2024/04/04 09:43:36;;;;;;;11.30;3.20;;;14.40;99.90;;;13.27;83.46;100276.94;4999862;28;20040;-82
2024/04/04 09:46:05;;;;;;;10.10;3.20;;;14.40;99.90;;;13.26;83.54;100269.97;5013505;28;20049;-83
2024/04/04 09:48:37;;;;;;;10.32;3.25;;;14.40;99.90;;;13.32;83.79;100259.00;5002285;28;20055;-82
2024/04/04 09:51:06;;;;;;;9.18;3.60;;;14.50;99.90;;;13.49;84.32;100268.47;5001928;28;20049;-83
2024/04/04 09:53:36;;;;;;;13.40;3.13;;;14.60;99.90;;;13.72;84.39;100260.81;5018039;28;20061;-83
2024/04/04 09:56:08;;;;;;;13.75;3.53;;;14.80;99.90;;;13.86;82.28;100263.38;5001244;28;20021;-82
2024/04/04 09:58:38;;;;;;;11.38;3.35;;;14.90;99.90;;;13.90;81.05;100258.72;5018569;28;20495;-84
2024/04/04 10:01:42;;;;;;;12.65;3.03;;;15.00;99.90;;;13.94;80.63;100268.16;5017733;28;20034;-82
2024/04/04 10:04:21;;;;;;;9.00;2.83;;;15.00;99.90;;;13.78;78.89;100262.19;4922674;29;20144;-82
2024/04/04 10:06:59;;;;;;;11.43;3.13;;;14.90;99.90;;;13.65;79.87;100263.03;4918148;29;20184;-82
2024/04/04 10:09:42;;;;;;;11.95;3.70;;;14.70;99.90;;;13.57;80.28;100256.56;4916343;29;20083;-82